Aérodrome :
LOGIN :

S'inscrire | Disclaimer

   EN    FR    IT 

 










Légende :    VFR   VFR Marginal   IFR   IFR Intensif   IFR Très Intensif
Visi : 
Plafond : 
>= 8 km
>= 3000ft
5 à 8 km
1000 à 3000 ft
1500m à 5 km
500 à 1000 ft
800 à 1500m
200 à 500 ft
< 800m
< 200 ft
Symboles :   Orages  Brouillard  Fortes neiges  Fortes précipitations  Vent > 20 kt
SIGMETs :   Divers  Orages  Givrage  Turbulence  Onde Orograph.  Cendres Volcan.






- Altitude de l'aérodrome : 309 ft
- Code IATA : FNI


LFTW - Nîmes Garons

DERNIER METAR :
  • 250630Z AUTO 27005KT CAVOK 07/00 Q1014 NOSIG

METARs EXPIRÉS :
  • 250600Z AUTO 28004KT CAVOK 08/M00 Q1014 NOSIG
  • 250530Z AUTO 27005KT CAVOK 07/M00 Q1014 NOSIG
  • 250500Z AUTO 27005KT CAVOK 08/M00 Q1014 NOSIG
  • 250430Z AUTO 29004KT 260V320 CAVOK 08/M00 Q1014 NOSIG

TAF TAF LFTW
Valide du 25 à 03h jusqu'au 26 à 03h UTC


250200Z 2503/2603 27005KT CAVOK
BECMG 2510/2512 28012G22KT



MET'MAP, la Météo Aéronautique d'un coup d'oeil ! - Copyright ORBIFLY Décembre 2007 - Disclaimer

ORBIFLY MET'MAP TEAM :

Programmation & Développement : Alexandra Zaïnal
Sur une idée originale de : Baudouin d'Aumeries
Assistance à la programmation : Marc-Olivier Méhu
Soutien technique & logistique : Manuel Goepfert

Contact : metmap@orbifly.com




SOURCES & CREDITS :

   NOAA